createdAt,value
2019-04-23T00:00:23.578Z,101089.02
2019-04-23T00:02:44.397Z,101093.32
2019-04-23T00:05:27.246Z,101090.72
2019-04-23T00:10:25.659Z,101084.67
2019-04-23T00:13:02.275Z,101089.44
2019-04-23T00:15:26.633Z,101082.53
2019-04-23T00:18:00.463Z,101086.77
2019-04-23T00:20:32.470Z,101077.33
2019-04-23T00:23:11.423Z,101075.98
2019-04-23T00:25:53.772Z,101072.57
2019-04-23T00:28:31.382Z,101074.72
2019-04-23T00:30:58.189Z,101069.58
2019-04-23T00:35:55.239Z,101060.48
2019-04-23T00:38:33.909Z,101064.80
2019-04-23T00:41:02.840Z,101058.70
2019-04-23T00:45:59.418Z,101054.37
2019-04-23T00:48:45.596Z,101055.27
2019-04-23T00:51:01.997Z,101047.50
2019-04-23T00:53:37.146Z,101056.50
2019-04-23T00:56:26.702Z,101048.83
2019-04-23T01:01:11.141Z,101053.09
2019-04-23T01:03:48.577Z,101049.70
2019-04-23T01:06:21.046Z,101058.75
2019-04-23T01:08:50.860Z,101047.84
2019-04-23T01:11:20.430Z,101047.84
2019-04-23T01:16:22.807Z,101044.08
2019-04-23T01:19:33.667Z,101043.64
2019-04-23T01:21:43.287Z,101045.30
2019-04-23T01:24:32.477Z,101047.37
2019-04-23T01:28:04.247Z,101034.93
2019-04-23T01:30:13.978Z,101041.84
2019-04-23T01:32:44.103Z,101033.61
2019-04-23T01:35:20.353Z,101022.92
2019-04-23T01:37:47.702Z,101029.27
2019-04-23T01:40:28.922Z,101028.47
2019-04-23T01:42:49.328Z,101016.39
2019-04-23T01:45:25.960Z,101020.24
2019-04-23T01:47:54.923Z,101016.36
2019-04-23T01:53:12.290Z,101016.62
2019-04-23T01:55:36.207Z,101013.59
2019-04-23T01:58:20.560Z,101010.63
2019-04-23T02:03:09.386Z,101000.30
2019-04-23T02:05:41.334Z,100998.06
2019-04-23T02:08:15.659Z,100990.91
2019-04-23T02:10:53.629Z,100990.78
2019-04-23T02:13:27.248Z,100993.38
2019-04-23T02:16:06.716Z,100993.00
2019-04-23T02:18:20.591Z,100996.75
2019-04-23T02:21:00.695Z,100994.02
2019-04-23T02:23:46.401Z,100987.73
2019-04-23T02:26:12.895Z,100983.95
2019-04-23T02:28:55.761Z,100988.51
2019-04-23T02:31:35.795Z,100977.91
2019-04-23T02:34:00.614Z,100994.07
2019-04-23T02:36:25.805Z,100986.80
2019-04-23T02:39:00.967Z,100984.23
2019-04-23T02:41:41.383Z,100986.07
2019-04-23T02:44:04.840Z,100982.95
2019-04-23T02:46:54.265Z,100981.02
2019-04-23T02:49:04.967Z,100977.31
2019-04-23T02:51:35.271Z,100983.02
2019-04-23T02:54:08.571Z,100987.23
2019-04-23T02:56:51.083Z,100976.83
2019-04-23T03:02:09.506Z,100975.06
2019-04-23T03:04:17.476Z,100968.41
2019-04-23T03:06:45.943Z,100968.77
2019-04-23T03:09:23.612Z,100962.89
2019-04-23T03:11:52.249Z,100958.48
2019-04-23T03:14:29.093Z,100954.84
2019-04-23T03:17:00.271Z,100954.19
2019-04-23T03:22:26.372Z,100955.47
2019-04-23T03:25:12.931Z,100947.75
2019-04-23T03:27:37.406Z,100950.95
2019-04-23T03:30:16.271Z,100948.00
2019-04-23T03:35:55.168Z,100943.50
2019-04-23T03:40:13.824Z,100944.19
2019-04-23T03:42:47.688Z,100942.05
2019-04-23T03:45:25.554Z,100939.43
2019-04-23T03:47:48.999Z,100944.25
2019-04-23T03:50:37.096Z,100940.73
2019-04-23T03:52:51.049Z,100941.62
2019-04-23T03:57:52.362Z,100947.89
2019-04-23T04:00:39.733Z,100939.00
2019-04-23T04:03:10.835Z,100947.16
2019-04-23T04:05:40.035Z,100934.02
2019-04-23T04:08:20.273Z,100942.57
2019-04-23T04:10:50.332Z,100941.52
2019-04-23T04:13:07.014Z,100941.83
2019-04-23T04:20:49.341Z,100941.91
2019-04-23T04:23:22.689Z,100939.67
2019-04-23T04:25:48.691Z,100937.72
2019-04-23T04:28:28.842Z,100945.47
2019-04-23T04:31:10.036Z,100940.05
2019-04-23T04:36:01.011Z,100927.54
2019-04-23T04:41:01.230Z,100932.08
2019-04-23T04:43:47.600Z,100937.20
2019-04-23T04:46:14.901Z,100935.24
2019-04-23T04:48:56.500Z,100929.61
2019-04-23T04:56:16.770Z,100933.18
2019-04-23T05:01:13.802Z,100927.98
2019-04-23T05:03:57.913Z,100922.66
2019-04-23T05:16:19.312Z,100917.80
2019-04-23T05:19:02.583Z,100923.50
2019-04-23T05:21:26.938Z,100921.87
2019-04-23T05:26:30.375Z,100920.85
2019-04-23T05:29:04.825Z,100915.44
2019-04-23T05:31:45.038Z,100917.95
2019-04-23T05:41:36.862Z,100901.02
2019-04-23T05:44:17.163Z,100894.97
2019-04-23T05:46:36.642Z,100891.15
2019-04-23T05:49:10.942Z,100894.20
2019-04-23T05:51:50.887Z,100891.03
2019-04-23T05:54:19.089Z,100891.48
2019-04-23T05:56:49.017Z,100886.46
2019-04-23T05:59:18.146Z,100891.48
2019-04-23T06:04:24.619Z,100882.13
2019-04-23T06:09:25.310Z,100885.08
2019-04-23T06:14:32.932Z,100870.73
2019-04-23T06:17:04.659Z,100876.70
2019-04-23T06:19:24.704Z,100863.79
2019-04-23T06:24:55.166Z,100867.17
2019-04-23T06:27:13.565Z,100855.30
2019-04-23T06:29:44.947Z,100848.93
2019-04-23T06:32:13.214Z,100847.61
2019-04-23T06:34:41.177Z,100844.94
2019-04-23T06:37:18.428Z,100862.65
2019-04-23T06:39:48.298Z,100851.94
2019-04-23T06:42:17.687Z,100858.41
2019-04-23T06:47:23.527Z,100854.41
2019-04-23T06:49:55.681Z,100847.47
2019-04-23T06:52:30.176Z,100851.03
2019-04-23T06:55:01.170Z,100863.48
2019-04-23T06:57:27.084Z,100845.89
2019-04-23T07:02:39.222Z,100849.74
2019-04-23T07:05:12.162Z,100846.73
2019-04-23T07:10:16.575Z,100846.75
2019-04-23T07:12:42.968Z,100840.66
2019-04-23T07:15:30.864Z,100828.66
2019-04-23T07:17:46.169Z,100832.96
2019-04-23T07:22:49.982Z,100829.96
2019-04-23T07:25:22.105Z,100823.00
2019-04-23T07:27:47.378Z,100813.38
2019-04-23T07:32:57.158Z,100832.97
2019-04-23T07:35:21.201Z,100832.55
2019-04-23T07:38:09.283Z,100813.08
2019-04-23T07:40:54.378Z,100827.31
2019-04-23T07:43:46.238Z,100821.73
2019-04-23T07:46:30.646Z,100806.61
2019-04-23T07:48:49.131Z,100798.40
2019-04-23T07:51:27.703Z,100807.90
2019-04-23T07:54:06.273Z,100813.53
2019-04-23T07:56:31.870Z,100813.92
2019-04-23T07:59:05.749Z,100811.34
2019-04-23T08:01:29.755Z,100797.09
2019-04-23T08:04:01.825Z,100796.06
2019-04-23T08:06:29.657Z,100803.95
2019-04-23T08:09:10.952Z,100784.42
2019-04-23T08:14:30.150Z,100781.98
2019-04-23T08:19:16.989Z,100797.86
2019-04-23T08:21:43.882Z,100783.64
2019-04-23T08:24:48.612Z,100773.31
2019-04-23T08:27:18.192Z,100772.49
2019-04-23T08:29:44.517Z,100754.99
2019-04-23T08:32:29.499Z,100754.94
2019-04-23T08:35:10.915Z,100756.48
2019-04-23T08:37:58.468Z,100743.95
2019-04-23T08:39:52.663Z,100746.08
2019-04-23T08:42:42.773Z,100738.98
2019-04-23T08:45:29.631Z,100736.62
2019-04-23T08:48:21.531Z,100739.15
2019-04-23T08:51:07.478Z,100744.88
2019-04-23T08:55:50.143Z,100733.02
2019-04-23T09:03:27.684Z,100701.80
2019-04-23T09:05:57.686Z,100734.15
2019-04-23T09:11:04.684Z,100707.95
2019-04-23T09:16:08.660Z,100705.94
2019-04-23T09:18:32.714Z,100729.77
2019-04-23T09:21:07.347Z,100695.42
2019-04-23T09:23:39.174Z,100694.02
2019-04-23T09:26:20.564Z,100702.13
2019-04-23T09:28:46.356Z,100694.70
2019-04-23T09:31:45.592Z,100689.86
2019-04-23T09:34:29.785Z,100685.11
2019-04-23T09:36:59.896Z,100702.25
2019-04-23T09:39:43.296Z,100678.02
2019-04-23T09:42:25.670Z,100663.70
2019-04-23T09:45:23.282Z,100685.29
2019-04-23T09:53:17.089Z,100655.11
2019-04-23T09:55:41.697Z,100655.59
2019-04-23T09:58:21.864Z,100649.80
2019-04-23T10:01:09.857Z,100630.45
2019-04-23T10:03:09.188Z,100635.94
2019-04-23T10:05:39.116Z,100628.30
2019-04-23T10:08:10.754Z,100635.66
2019-04-23T10:10:32.244Z,100627.92
2019-04-23T10:13:04.073Z,100619.55
2019-04-23T10:15:38.842Z,100606.48
2019-04-23T10:18:05.987Z,100608.78
2019-04-23T10:20:36.394Z,100621.23
2019-04-23T10:23:06.364Z,100596.94
2019-04-23T10:25:38.237Z,100603.30
2019-04-23T10:28:16.716Z,100595.11
2019-04-23T10:30:46.854Z,100597.95
2019-04-23T10:33:16.799Z,100593.41
2019-04-23T10:35:56.441Z,100578.33
2019-04-23T10:38:20.341Z,100574.19
2019-04-23T10:40:50.811Z,100577.23
2019-04-23T10:43:22.667Z,100568.77
2019-04-23T10:46:32.556Z,100572.56
2019-04-23T10:52:04.175Z,100553.03
2019-04-23T10:54:35.833Z,100546.95
2019-04-23T10:56:59.019Z,100538.51
2019-04-23T11:02:36.354Z,100543.27
2019-04-23T11:04:53.712Z,100550.91
2019-04-23T11:07:28.711Z,100542.67
2019-04-23T11:12:37.590Z,100538.41
2019-04-23T11:15:26.994Z,100528.00
2019-04-23T11:17:50.066Z,100546.64
2019-04-23T11:20:30.294Z,100539.66
2019-04-23T11:25:31.516Z,100520.62
2019-04-23T11:28:05.639Z,100525.21
2019-04-23T11:35:50.480Z,100514.72
2019-04-23T11:38:35.589Z,100520.75
2019-04-23T11:40:37.086Z,100518.87
2019-04-23T11:45:59.197Z,100517.19
2019-04-23T11:53:26.080Z,100499.50
2019-04-23T11:55:55.625Z,100506.33
2019-04-23T11:58:29.796Z,100504.34
2019-04-23T12:01:38.665Z,100475.09
2019-04-23T12:04:05.414Z,100476.16
2019-04-23T12:06:47.823Z,100471.03
2019-04-23T12:09:34.849Z,100485.32
2019-04-23T12:17:20.385Z,100483.08
2019-04-23T12:20:33.757Z,100468.56
2019-04-23T12:22:21.624Z,100480.21
2019-04-23T12:27:27.543Z,100484.09
2019-04-23T12:29:57.572Z,100485.05
2019-04-23T12:37:44.873Z,100479.50
2019-04-23T12:45:26.841Z,100477.92
2019-04-23T12:53:05.733Z,100476.98
2019-04-23T12:58:01.322Z,100466.36
2019-04-23T13:03:08.542Z,100471.37
2019-04-23T13:05:57.535Z,100465.27
2019-04-23T13:08:33.718Z,100475.95
2019-04-23T13:10:57.686Z,100471.19
2019-04-23T13:13:48.747Z,100474.16
2019-04-23T13:16:04.680Z,100468.46
2019-04-23T13:21:14.226Z,100448.97
2019-04-23T13:23:34.847Z,100454.05
2019-04-23T13:26:04.040Z,100444.18
2019-04-23T13:33:58.044Z,100434.05
2019-04-23T13:36:24.386Z,100428.18
2019-04-23T13:38:47.282Z,100425.34
2019-04-23T13:41:23.140Z,100421.67
2019-04-23T13:44:02.665Z,100408.13
2019-04-23T13:46:28.823Z,100420.34
2019-04-23T13:48:58.681Z,100412.49
2019-04-23T13:51:39.470Z,100405.63
2019-04-23T13:54:07.889Z,100402.06
2019-04-23T13:59:31.410Z,100394.82
2019-04-23T14:01:54.434Z,100402.56
2019-04-23T14:06:53.424Z,100411.89
2019-04-23T14:09:41.830Z,100407.78
2019-04-23T14:11:55.003Z,100417.20
2019-04-23T14:14:41.390Z,100399.67
2019-04-23T14:17:11.505Z,100404.09
2019-04-23T14:19:41.830Z,100403.92
2019-04-23T14:22:21.231Z,100399.02
2019-04-23T14:27:14.909Z,100414.98
2019-04-23T14:29:48.159Z,100410.52
2019-04-23T14:32:23.357Z,100419.93
2019-04-23T14:34:54.705Z,100406.52
2019-04-23T14:37:18.177Z,100419.17
2019-04-23T14:39:56.027Z,100417.59
2019-04-23T14:42:30.929Z,100431.34
2019-04-23T14:45:09.832Z,100418.59
2019-04-23T14:47:27.977Z,100429.12
2019-04-23T14:50:24.310Z,100427.80
2019-04-23T14:52:41.295Z,100418.58
2019-04-23T14:58:07.122Z,100430.25
2019-04-23T15:00:23.479Z,100419.42
2019-04-23T15:02:51.863Z,100425.03
2019-04-23T15:05:20.244Z,100427.80
2019-04-23T15:07:50.705Z,100432.55
2019-04-23T15:13:01.601Z,100418.16
2019-04-23T15:15:33.966Z,100419.87
2019-04-23T15:18:09.843Z,100409.41
2019-04-23T15:20:50.306Z,100413.26
2019-04-23T15:26:22.619Z,100411.83
2019-04-23T15:28:07.533Z,100410.20
2019-04-23T15:31:02.740Z,100406.22
2019-04-23T15:33:35.381Z,100404.09
2019-04-23T15:36:27.447Z,100410.02
2019-04-23T15:41:15.288Z,100400.03
2019-04-23T15:43:52.242Z,100398.05
2019-04-23T15:46:25.327Z,100396.35
2019-04-23T15:49:01.116Z,100391.64
2019-04-23T15:51:30.587Z,100398.88
2019-04-23T15:53:56.643Z,100401.53
2019-04-23T15:56:35.818Z,100388.25
2019-04-23T16:01:34.528Z,100396.75
2019-04-23T16:03:33.885Z,100390.44
2019-04-23T16:06:04.781Z,100390.73
2019-04-23T16:16:55.747Z,100383.61
2019-04-23T16:24:26.563Z,100382.70
2019-04-23T16:27:01.599Z,100381.41
2019-04-23T16:32:08.522Z,100369.91
2019-04-23T16:34:54.144Z,100363.41
2019-04-23T16:37:27.349Z,100368.19
2019-04-23T16:40:01.871Z,100373.19
2019-04-23T16:42:29.587Z,100364.19
2019-04-23T16:48:15.781Z,100361.64
2019-04-23T16:50:57.395Z,100358.75
2019-04-23T16:53:16.144Z,100358.63
2019-04-23T16:58:22.243Z,100368.44
2019-04-23T17:03:29.038Z,100354.03
2019-04-23T17:13:29.223Z,100352.61
2019-04-23T17:16:06.682Z,100354.64
2019-04-23T17:18:31.886Z,100348.61
2019-04-23T17:20:56.012Z,100341.27
2019-04-23T17:26:04.078Z,100348.64
2019-04-23T17:28:54.302Z,100347.16
2019-04-23T17:31:27.917Z,100337.48
2019-04-23T17:33:43.764Z,100339.41
2019-04-23T17:39:02.809Z,100333.91
2019-04-23T17:41:41.791Z,100336.34
2019-04-23T17:44:21.934Z,100333.81
2019-04-23T17:49:15.281Z,100326.58
2019-04-23T17:51:42.309Z,100335.74
2019-04-23T17:54:17.379Z,100328.65
2019-04-23T17:56:55.990Z,100326.74
2019-04-23T17:59:20.476Z,100320.47
2019-04-23T18:02:08.247Z,100315.49
2019-04-23T18:04:29.535Z,100317.63
2019-04-23T18:06:56.061Z,100316.17
2019-04-23T18:12:00.837Z,100313.45
2019-04-23T18:14:28.268Z,100310.97
2019-04-23T18:17:24.282Z,100309.48
2019-04-23T18:19:32.420Z,100310.02
2019-04-23T18:22:35.583Z,100309.89
2019-04-23T18:25:37.537Z,100314.27
2019-04-23T18:36:09.835Z,100306.27
2019-04-23T18:41:17.050Z,100307.00
2019-04-23T18:43:50.754Z,100304.72
2019-04-23T18:46:35.606Z,100303.46
2019-04-23T18:49:11.301Z,100300.92
2019-04-23T18:51:55.079Z,100307.84
2019-04-23T18:54:28.525Z,100309.20
2019-04-23T18:59:37.166Z,100302.55
2019-04-23T19:02:27.504Z,100311.85
2019-04-23T19:05:08.724Z,100305.53
2019-04-23T19:07:59.331Z,100302.34
2019-04-23T19:13:07.091Z,100312.47
2019-04-23T19:15:38.174Z,100313.39
2019-04-23T19:18:23.316Z,100312.36
2019-04-23T19:23:25.554Z,100313.97
2019-04-23T19:25:51.867Z,100315.64
2019-04-23T19:28:42.664Z,100316.28
2019-04-23T19:34:13.898Z,100316.95
2019-04-23T19:39:17.804Z,100330.11
2019-04-23T19:46:58.201Z,100318.16
2019-04-23T19:51:59.485Z,100318.92
2019-04-23T19:54:47.695Z,100323.16
2019-04-23T19:57:09.262Z,100322.05
2019-04-23T20:02:22.884Z,100306.52
2019-04-23T20:04:45.941Z,100312.10
2019-04-23T20:07:22.779Z,100310.28
2019-04-23T20:09:51.637Z,100314.77
2019-04-23T20:12:25.355Z,100321.87
2019-04-23T20:14:56.188Z,100317.97
2019-04-23T20:20:00.894Z,100323.20
2019-04-23T20:22:41.768Z,100319.45
2019-04-23T20:30:55.096Z,100318.59
2019-04-23T20:36:05.389Z,100310.20
2019-04-23T20:38:47.672Z,100318.16
2019-04-23T20:41:14.566Z,100321.11
2019-04-23T20:43:42.612Z,100311.00
2019-04-23T20:46:14.871Z,100319.93
2019-04-23T20:48:48.318Z,100318.07
2019-04-23T20:51:14.357Z,100319.09
2019-04-23T20:53:50.193Z,100334.95
2019-04-23T20:56:31.881Z,100327.05
2019-04-23T20:59:00.303Z,100312.80
2019-04-23T21:01:38.603Z,100331.66
2019-04-23T21:04:00.409Z,100325.52
2019-04-23T21:06:45.882Z,100326.09
2019-04-23T21:11:48.223Z,100324.00
2019-04-23T21:14:28.496Z,100323.91
2019-04-23T21:19:25.923Z,100321.34
2019-04-23T21:22:14.033Z,100326.05
2019-04-23T21:24:43.054Z,100327.45
2019-04-23T21:27:21.835Z,100322.02
2019-04-23T21:29:53.830Z,100325.90
2019-04-23T21:32:28.921Z,100336.01
2019-04-23T21:34:59.807Z,100322.20
2019-04-23T21:37:37.384Z,100323.36
2019-04-23T21:40:53.641Z,100324.75
2019-04-23T21:43:09.499Z,100326.34
2019-04-23T21:45:48.375Z,100332.40
2019-04-23T21:48:10.286Z,100339.42
2019-04-23T21:50:44.489Z,100344.48
2019-04-23T21:53:11.770Z,100334.93
2019-04-23T21:55:54.073Z,100344.25
2019-04-23T21:58:25.764Z,100344.33
2019-04-23T22:00:58.811Z,100333.77
2019-04-23T22:03:29.017Z,100340.97
2019-04-23T22:06:01.826Z,100344.92
2019-04-23T22:08:27.003Z,100342.03
2019-04-23T22:11:10.417Z,100339.08
2019-04-23T22:16:06.019Z,100343.50
2019-04-23T22:18:37.975Z,100347.26
2019-04-23T22:21:11.659Z,100339.51
2019-04-23T22:23:41.929Z,100340.28
2019-04-23T22:28:50.069Z,100347.91
2019-04-23T22:32:27.149Z,100334.60
2019-04-23T22:33:57.913Z,100336.23
2019-04-23T22:36:16.502Z,100346.14
2019-04-23T22:38:51.206Z,100331.08
2019-04-23T22:41:20.920Z,100346.70
2019-04-23T22:44:02.408Z,100344.92
2019-04-23T22:46:23.024Z,100343.39
2019-04-23T22:49:17.976Z,100344.35
2019-04-23T22:51:43.753Z,100346.38
2019-04-23T22:56:45.158Z,100346.81
2019-04-23T22:59:18.500Z,100342.64
2019-04-23T23:01:54.743Z,100340.20
2019-04-23T23:11:54.171Z,100340.57
2019-04-23T23:14:30.955Z,100340.12
2019-04-23T23:16:59.792Z,100343.83
2019-04-23T23:19:34.507Z,100346.24
2019-04-23T23:22:06.404Z,100340.45
2019-04-23T23:24:28.144Z,100334.84
2019-04-23T23:27:10.279Z,100329.48
2019-04-23T23:29:42.590Z,100336.30
2019-04-23T23:32:13.319Z,100330.91
2019-04-23T23:34:54.296Z,100331.64
2019-04-23T23:37:12.100Z,100320.20
2019-04-23T23:40:04.952Z,100329.28
2019-04-23T23:47:14.672Z,100321.34
2019-04-23T23:49:55.798Z,100317.95
2019-04-23T23:52:22.023Z,100315.56
2019-04-23T23:54:53.108Z,100321.03
